Time;durP1;ratioP1;P1;durP2;ratioP2;P2;SDS_P1;SDS_P2;PMS_P1;PMS_P2;Temp;Humidity;BMP_temperature;BMP_pressure;BME280_temperature;BME280_humidity;BME280_pressure;Samples;Min_cycle;Max_cycle;Signal;HPM_P1;HPM_P2
2021/08/21 00:00:13;;;;;;;;;;;13.50;99.90;;;;;;5090680;28;19908;-76
2021/08/21 00:02:38;;;;;;;;;;;13.50;99.90;;;;;;5089435;28;19912;-76
2021/08/21 00:05:05;;;;;;;;;;;13.50;99.90;;;;;;5088283;28;19970;-75
2021/08/21 00:07:30;;;;;;;;;;;13.60;99.90;;;;;;5089530;28;19951;-76
2021/08/21 00:09:56;;;;;;;;;;;13.50;99.90;;;;;;5090846;28;19940;-76
2021/08/21 00:12:21;;;;;;;;;;;13.50;99.90;;;;;;5090583;28;20016;-76
2021/08/21 00:14:47;;;;;;;;;;;13.50;99.90;;;;;;5092438;28;19943;-76
2021/08/21 00:17:12;;;;;;;;;;;13.50;99.90;;;;;;5091896;28;19908;-75
2021/08/21 00:19:38;;;;;;;;;;;13.50;99.90;;;;;;5092554;28;19947;-75
2021/08/21 00:22:03;;;;;;;;;;;13.40;99.90;;;;;;5092378;28;20002;-75
2021/08/21 00:24:29;;;;;;;;;;;13.40;99.90;;;;;;5092355;28;19912;-75
2021/08/21 00:26:54;;;;;;;;;;;13.40;99.90;;;;;;5085470;28;19919;-75
2021/08/21 00:29:20;;;;;;;;;;;13.30;99.90;;;;;;5092030;28;19915;-75
2021/08/21 00:31:45;;;;;;;;;;;13.30;99.90;;;;;;5091759;28;19972;-75
2021/08/21 00:34:11;;;;;;;;;;;13.20;99.90;;;;;;5090759;28;19912;-75
2021/08/21 00:36:36;;;;;;;;;;;13.10;99.90;;;;;;5091703;28;19908;-75
2021/08/21 00:39:02;;;;;;;;;;;13.10;99.90;;;;;;5092057;28;20371;-75
2021/08/21 00:41:28;;;;;;;;;;;13.10;99.90;;;;;;5091938;28;19953;-75
2021/08/21 00:43:53;;;;;;;;;;;13.00;99.90;;;;;;5092034;28;19908;-76
2021/08/21 00:46:19;;;;;;;;;;;13.00;99.90;;;;;;5091254;28;20011;-75
2021/08/21 00:48:44;;;;;;;;;;;12.90;99.90;;;;;;5090594;28;19912;-75
2021/08/21 00:51:10;;;;;;;;;;;12.90;99.90;;;;;;5091775;28;19908;-76
2021/08/21 00:53:35;;;;;;;;;;;12.90;99.90;;;;;;5091790;28;19912;-75
2021/08/21 00:56:02;;;;;;;;;;;12.90;99.90;;;;;;5090578;28;20195;-76
2021/08/21 00:58:27;;;;;;;;;;;12.90;99.90;;;;;;5086367;28;19944;-75
2021/08/21 01:00:53;;;;;;;;;;;12.80;99.90;;;;;;5091240;28;19962;-75
2021/08/21 01:03:19;;;;;;;;;;;12.80;99.90;;;;;;5091206;28;19908;-75
2021/08/21 01:05:45;;;;;;;;;;;12.70;99.90;;;;;;5091811;28;19912;-75
2021/08/21 01:08:10;;;;;;;;;;;12.70;99.90;;;;;;5091716;28;20391;-75
2021/08/21 01:10:36;;;;;;;;;;;12.70;99.90;;;;;;5091578;28;20053;-75
2021/08/21 01:13:02;;;;;;;;;;;12.60;99.90;;;;;;5091584;28;19981;-76
2021/08/21 01:15:27;;;;;;;;;;;12.60;99.90;;;;;;5090106;28;20012;-75
2021/08/21 01:17:53;;;;;;;;;;;12.60;99.90;;;;;;5091196;28;19914;-75
2021/08/21 01:20:19;;;;;;;;;;;12.60;99.90;;;;;;5091537;28;19908;-76
2021/08/21 01:22:44;;;;;;;;;;;12.50;99.90;;;;;;5091523;28;19911;-76
2021/08/21 01:25:14;;;;;;;;;;;12.50;99.90;;;;;;5091590;28;19916;-75
2021/08/21 01:27:40;;;;;;;;;;;12.40;99.90;;;;;;5084600;28;19951;-75
2021/08/21 01:30:06;;;;;;;;;;;12.40;99.90;;;;;;5091131;28;20352;-75
2021/08/21 01:32:31;;;;;;;;;;;12.30;99.90;;;;;;5091351;28;19947;-75
2021/08/21 01:34:57;;;;;;;;;;;12.30;99.90;;;;;;5091751;28;19952;-76
2021/08/21 01:37:23;;;;;;;;;;;12.30;99.90;;;;;;5091066;28;19909;-75
2021/08/21 01:39:50;;;;;;;;;;;12.20;99.90;;;;;;5090091;28;19935;-75
2021/08/21 01:42:15;;;;;;;;;;;12.20;99.90;;;;;;5091115;28;19916;-76
2021/08/21 01:44:41;;;;;;;;;;;12.20;99.90;;;;;;5091070;28;19930;-76
2021/08/21 01:47:10;;;;;;;;;;;12.20;99.90;;;;;;5090857;28;19916;-76
2021/08/21 01:49:36;;;;;;;;;;;12.20;99.90;;;;;;5091181;28;19912;-75
2021/08/21 01:52:03;;;;;;;;;;;12.20;99.90;;;;;;5090964;28;19908;-75
2021/08/21 01:54:29;;;;;;;;;;;12.20;99.90;;;;;;5091175;28;19912;-75
2021/08/21 01:56:56;;;;;;;;;;;12.20;99.90;;;;;;5083935;28;20003;-75
2021/08/21 01:59:22;;;;;;;;;;;12.10;99.90;;;;;;5090897;28;19965;-76
2021/08/21 02:01:48;;;;;;;;;;;12.20;99.90;;;;;;5090978;28;19947;-75
2021/08/21 02:04:14;;;;;;;;;;;12.10;99.90;;;;;;5091111;28;19908;-76
2021/08/21 02:06:39;;;;;;;;;;;12.10;99.90;;;;;;5090719;28;19928;-75
2021/08/21 02:09:05;;;;;;;;;;;12.10;99.90;;;;;;5091160;28;19912;-75
2021/08/21 02:11:30;;;;;;;;;;;12.10;99.90;;;;;;5090980;28;19921;-75
2021/08/21 02:13:56;;;;;;;;;;;12.00;99.90;;;;;;5092395;28;19916;-76
2021/08/21 02:16:23;;;;;;;;;;;12.00;99.90;;;;;;5094314;28;20389;-75
2021/08/21 02:18:48;;;;;;;;;;;12.00;99.90;;;;;;5094701;28;20361;-75
2021/08/21 02:21:16;;;;;;;;;;;11.90;99.90;;;;;;5094578;28;19969;-76
2021/08/21 02:23:42;;;;;;;;;;;11.90;99.90;;;;;;5094550;28;19914;-75
2021/08/21 02:26:07;;;;;;;;;;;11.90;99.90;;;;;;5094091;28;20011;-75
2021/08/21 02:28:33;;;;;;;;;;;11.90;99.90;;;;;;5092161;28;19961;-75
2021/08/21 02:30:58;;;;;;;;;;;11.90;99.90;;;;;;5094177;28;19916;-75
2021/08/21 02:33:24;;;;;;;;;;;11.90;99.90;;;;;;5094332;28;20399;-75
2021/08/21 02:35:49;;;;;;;;;;;11.90;99.90;;;;;;5094365;28;19970;-75
2021/08/21 02:38:15;;;;;;;;;;;11.90;99.90;;;;;;5093935;28;20365;-76
2021/08/21 02:40:40;;;;;;;;;;;11.80;99.90;;;;;;5094098;28;19908;-75
2021/08/21 02:43:06;;;;;;;;;;;11.80;99.90;;;;;;5094097;28;19988;-75
2021/08/21 02:45:31;;;;;;;;;;;11.90;99.90;;;;;;5094031;28;19916;-76
2021/08/21 02:47:57;;;;;;;;;;;11.80;99.90;;;;;;5093722;28;19918;-75
2021/08/21 02:50:22;;;;;;;;;;;11.80;99.90;;;;;;5093980;28;19908;-75
2021/08/21 02:52:51;;;;;;;;;;;11.80;99.90;;;;;;5093902;28;19912;-75
2021/08/21 02:55:16;;;;;;;;;;;11.80;99.90;;;;;;5093981;28;20339;-75
2021/08/21 02:57:42;;;;;;;;;;;11.80;99.90;;;;;;5090115;28;19912;-75
2021/08/21 03:00:07;;;;;;;;;;;11.80;99.90;;;;;;5092411;28;19959;-75
2021/08/21 03:02:33;;;;;;;;;;;11.70;99.90;;;;;;5093586;28;19915;-75
2021/08/21 03:04:58;;;;;;;;;;;11.70;99.90;;;;;;5093569;28;19908;-75
2021/08/21 03:07:24;;;;;;;;;;;11.70;99.90;;;;;;5093218;28;20003;-75
2021/08/21 03:09:49;;;;;;;;;;;11.70;99.90;;;;;;5093394;28;19908;-76
2021/08/21 03:12:15;;;;;;;;;;;11.70;99.90;;;;;;5093287;28;19916;-75
2021/08/21 03:14:40;;;;;;;;;;;11.70;99.90;;;;;;5092844;28;19920;-75
2021/08/21 03:17:10;;;;;;;;;;;11.70;99.90;;;;;;5092947;28;20382;-75
2021/08/21 03:19:35;;;;;;;;;;;11.60;99.90;;;;;;5092914;28;19918;-75
2021/08/21 03:22:01;;;;;;;;;;;11.60;99.90;;;;;;5093316;28;19908;-75
2021/08/21 03:24:26;;;;;;;;;;;11.60;99.90;;;;;;5093327;28;20387;-75
2021/08/21 03:26:52;;;;;;;;;;;11.60;99.90;;;;;;5090038;28;20282;-75
2021/08/21 03:29:17;;;;;;;;;;;11.60;99.90;;;;;;5093106;28;19909;-75
2021/08/21 03:31:43;;;;;;;;;;;11.60;99.90;;;;;;5093218;28;20357;-75
2021/08/21 03:34:08;;;;;;;;;;;11.60;99.90;;;;;;5093150;28;19912;-75
2021/08/21 03:36:34;;;;;;;;;;;11.50;99.90;;;;;;5092739;28;19969;-75
2021/08/21 03:38:59;;;;;;;;;;;11.50;99.90;;;;;;5093008;28;19952;-75
2021/08/21 03:41:25;;;;;;;;;;;11.50;99.90;;;;;;5092765;28;20292;-75
2021/08/21 03:43:50;;;;;;;;;;;11.50;99.90;;;;;;5092960;28;19958;-75
2021/08/21 03:46:16;;;;;;;;;;;11.50;99.90;;;;;;5092374;28;19915;-75
2021/08/21 03:48:41;;;;;;;;;;;11.50;99.90;;;;;;5093022;28;19912;-75
2021/08/21 03:51:07;;;;;;;;;;;11.50;99.90;;;;;;5093065;28;19908;-75
2021/08/21 03:53:32;;;;;;;;;;;11.50;99.90;;;;;;5092673;28;20384;-76
2021/08/21 03:55:58;;;;;;;;;;;11.50;99.90;;;;;;5092409;28;19965;-75
2021/08/21 03:58:23;;;;;;;;;;;11.60;99.90;;;;;;5089444;28;19908;-76
2021/08/21 04:00:48;;;;;;;;;;;11.60;99.90;;;;;;5092471;28;19908;-75
2021/08/21 04:03:14;;;;;;;;;;;11.50;99.90;;;;;;5092608;28;19930;-75
2021/08/21 04:05:40;;;;;;;;;;;11.50;99.90;;;;;;5092458;28;19909;-75
2021/08/21 04:08:06;;;;;;;;;;;11.50;99.90;;;;;;5091980;28;19909;-75
2021/08/21 04:10:31;;;;;;;;;;;11.50;99.90;;;;;;5091960;28;19916;-76
2021/08/21 04:12:57;;;;;;;;;;;11.50;99.90;;;;;;5092245;28;19916;-75
2021/08/21 04:15:23;;;;;;;;;;;11.50;99.90;;;;;;5092383;28;19915;-75
2021/08/21 04:17:48;;;;;;;;;;;11.50;99.90;;;;;;5091928;28;19943;-75
2021/08/21 04:20:14;;;;;;;;;;;11.40;99.90;;;;;;5090937;28;19912;-75
2021/08/21 04:22:39;;;;;;;;;;;11.40;99.90;;;;;;5092305;28;19958;-75
2021/08/21 04:25:05;;;;;;;;;;;11.50;99.90;;;;;;5091899;28;19918;-76
2021/08/21 04:27:31;;;;;;;;;;;11.50;99.90;;;;;;5089571;28;20004;-75
2021/08/21 04:29:56;;;;;;;;;;;11.50;99.90;;;;;;5091881;28;19947;-75
2021/08/21 04:32:22;;;;;;;;;;;11.50;99.90;;;;;;5092035;28;19908;-75
2021/08/21 04:34:47;;;;;;;;;;;11.50;99.90;;;;;;5091947;28;19912;-76
2021/08/21 04:37:13;;;;;;;;;;;11.50;99.90;;;;;;5090771;28;19908;-75
2021/08/21 04:39:38;;;;;;;;;;;11.50;99.90;;;;;;5091793;28;19908;-75
2021/08/21 04:42:04;;;;;;;;;;;11.60;99.90;;;;;;5091704;28;20391;-76
2021/08/21 04:44:29;;;;;;;;;;;11.60;99.90;;;;;;5091896;28;19908;-76
2021/08/21 04:46:55;;;;;;;;;;;11.60;99.90;;;;;;5091307;28;19920;-75
2021/08/21 04:49:21;;;;;;;;;;;11.70;99.90;;;;;;5091903;28;19912;-75
2021/08/21 04:51:46;;;;;;;;;;;11.70;99.90;;;;;;5091768;28;19908;-76
2021/08/21 04:54:12;;;;;;;;;;;11.80;99.90;;;;;;5091484;28;19920;-75
2021/08/21 04:56:37;;;;;;;;;;;11.80;99.90;;;;;;5088592;28;19912;-75
2021/08/21 04:59:03;;;;;;;;;;;11.90;99.90;;;;;;5091183;28;20412;-75
2021/08/21 05:01:28;;;;;;;;;;;12.00;99.90;;;;;;5091601;28;19912;-75
2021/08/21 05:03:54;;;;;;;;;;;12.10;99.90;;;;;;5091938;28;20431;-76
2021/08/21 05:06:19;;;;;;;;;;;12.20;99.90;;;;;;5091298;28;19914;-75
2021/08/21 05:08:45;;;;;;;;;;;12.30;99.90;;;;;;5091395;28;20278;-76
2021/08/21 05:11:10;;;;;;;;;;;12.40;99.90;;;;;;5091349;28;19947;-75
2021/08/21 05:13:36;;;;;;;;;;;12.50;99.90;;;;;;5091423;28;19912;-75
2021/08/21 05:16:01;;;;;;;;;;;12.60;99.90;;;;;;5091149;28;19908;-75
2021/08/21 05:18:52;;;;;;;;;;;12.70;99.90;;;;;;5091601;28;19908;-75
2021/08/21 05:21:24;;;;;;;;;;;12.70;99.90;;;;;;5090681;28;19908;-76
2021/08/21 05:23:49;;;;;;;;;;;12.80;99.90;;;;;;5091468;28;19908;-75
2021/08/21 05:26:15;;;;;;;;;;;12.90;99.90;;;;;;5090925;28;19916;-75
2021/08/21 05:28:40;;;;;;;;;;;13.00;99.90;;;;;;5089040;28;19998;-76
2021/08/21 05:31:06;;;;;;;;;;;13.00;99.90;;;;;;5091276;28;19908;-75
2021/08/21 05:33:32;;;;;;;;;;;13.00;99.90;;;;;;5091245;28;19938;-75
2021/08/21 05:35:58;;;;;;;;;;;13.10;99.90;;;;;;5091171;28;20006;-75
2021/08/21 05:38:23;;;;;;;;;;;13.00;99.90;;;;;;5091109;28;20503;-76
2021/08/21 05:40:49;;;;;;;;;;;13.10;99.90;;;;;;5091114;28;19908;-75
2021/08/21 05:43:14;;;;;;;;;;;13.20;99.90;;;;;;5091241;28;20388;-76
2021/08/21 05:45:40;;;;;;;;;;;13.30;99.90;;;;;;5091396;28;19966;-75
2021/08/21 05:48:06;;;;;;;;;;;13.50;99.90;;;;;;5091094;28;19934;-76
2021/08/21 05:50:31;;;;;;;;;;;13.50;99.90;;;;;;5094790;28;19953;-75
2021/08/21 05:52:57;;;;;;;;;;;13.60;99.90;;;;;;5095021;28;19915;-75
2021/08/21 05:55:22;;;;;;;;;;;13.70;99.90;;;;;;5095017;28;19980;-75
2021/08/21 05:57:48;;;;;;;;;;;13.70;99.90;;;;;;5090896;28;19908;-75
2021/08/21 06:00:13;;;;;;;;;;;13.80;99.90;;;;;;5094709;28;19934;-76
2021/08/21 06:02:40;;;;;;;;;;;13.80;99.90;;;;;;5094901;28;20365;-76
2021/08/21 06:05:06;;;;;;;;;;;13.80;99.90;;;;;;5094710;28;20257;-76
2021/08/21 06:07:32;;;;;;;;;;;13.90;99.90;;;;;;5093118;28;19916;-76
2021/08/21 06:09:58;;;;;;;;;;;14.00;99.90;;;;;;5094719;28;20392;-76
2021/08/21 06:12:23;;;;;;;;;;;14.00;99.90;;;;;;5094651;28;19908;-76
2021/08/21 06:14:49;;;;;;;;;;;14.10;99.90;;;;;;5094660;28;19912;-76
2021/08/21 06:17:14;;;;;;;;;;;14.10;99.90;;;;;;5094155;28;19978;-76
2021/08/21 06:19:40;;;;;;;;;;;14.20;99.90;;;;;;5094423;28;19908;-76
2021/08/21 06:22:05;;;;;;;;;;;14.20;99.90;;;;;;5094439;28;19912;-75
2021/08/21 06:24:31;;;;;;;;;;;14.20;99.90;;;;;;5094417;28;19915;-76
2021/08/21 06:26:57;;;;;;;;;;;14.30;99.90;;;;;;5091870;28;19962;-76
2021/08/21 06:29:22;;;;;;;;;;;14.40;99.90;;;;;;5094089;28;19908;-76
2021/08/21 06:31:48;;;;;;;;;;;14.60;99.90;;;;;;5094252;28;19915;-76
2021/08/21 06:34:13;;;;;;;;;;;14.70;99.90;;;;;;5094067;28;20373;-76
2021/08/21 06:36:39;;;;;;;;;;;14.80;99.90;;;;;;5093865;28;19909;-76
2021/08/21 06:39:04;;;;;;;;;;;14.90;99.90;;;;;;5094120;28;19912;-77
2021/08/21 06:41:30;;;;;;;;;;;15.00;99.90;;;;;;5094173;28;19915;-76
2021/08/21 06:43:55;;;;;;;;;;;15.10;99.90;;;;;;5094191;28;19959;-76
2021/08/21 06:46:21;;;;;;;;;;;15.10;99.90;;;;;;5093529;28;19916;-76
2021/08/21 06:48:46;;;;;;;;;;;15.30;99.90;;;;;;5092574;28;19973;-76
2021/08/21 06:51:12;;;;;;;;;;;15.50;99.90;;;;;;5093948;28;19912;-76
2021/08/21 06:53:38;;;;;;;;;;;15.60;99.90;;;;;;5093838;28;19919;-76
2021/08/21 06:56:04;;;;;;;;;;;15.70;99.90;;;;;;5093559;28;19908;-76
2021/08/21 06:58:30;;;;;;;;;;;15.80;99.90;;;;;;5091862;28;19908;-76
2021/08/21 07:00:56;;;;;;;;;;;15.90;99.90;;;;;;5092672;28;19908;-76
2021/08/21 07:03:22;;;;;;;;;;;16.00;99.90;;;;;;5093575;28;19908;-76
2021/08/21 07:05:47;;;;;;;;;;;16.10;99.90;;;;;;5093632;28;19931;-76
2021/08/21 07:08:13;;;;;;;;;;;16.10;99.90;;;;;;5093206;28;20384;-76
2021/08/21 07:10:39;;;;;;;;;;;16.10;99.90;;;;;;5093554;28;20264;-76
2021/08/21 07:13:05;;;;;;;;;;;16.30;99.90;;;;;;5093533;28;20140;-76
2021/08/21 07:15:30;;;;;;;;;;;16.50;99.90;;;;;;5093533;28;20109;-76
2021/08/21 07:17:56;;;;;;;;;;;16.90;99.90;;;;;;5091578;28;19908;-76
2021/08/21 07:20:21;;;;;;;;;;;18.00;99.90;;;;;;5093327;28;19915;-76
2021/08/21 07:22:47;;;;;;;;;;;19.20;99.90;;;;;;5093333;28;19915;-76
2021/08/21 07:25:12;;;;;;;;;;;20.20;99.90;;;;;;5093300;28;19961;-76
2021/08/21 07:27:38;;;;;;;;;;;21.20;99.90;;;;;;5090581;28;19944;-76
2021/08/21 07:30:04;;;;;;;;;;;21.80;99.90;;;;;;5093355;28;19908;-76
2021/08/21 07:32:30;;;;;;;;;;;22.50;99.90;;;;;;5092902;28;20012;-76
2021/08/21 07:34:55;;;;;;;;;;;22.90;99.90;;;;;;5093270;28;19912;-76
2021/08/21 07:37:21;;;;;;;;;;;22.70;99.90;;;;;;5092647;28;20199;-76
2021/08/21 07:39:47;;;;;;;;;;;22.90;99.90;;;;;;5093019;28;19915;-76
2021/08/21 07:42:13;;;;;;;;;;;23.40;99.90;;;;;;5092864;28;20280;-76
2021/08/21 07:44:38;;;;;;;;;;;23.90;99.90;;;;;;5092867;28;19909;-76
2021/08/21 07:47:04;;;;;;;;;;;24.00;99.90;;;;;;5092296;28;20415;-76
2021/08/21 07:49:29;;;;;;;;;;;24.30;99.90;;;;;;5092880;28;20395;-76
2021/08/21 07:51:55;;;;;;;;;;;24.20;99.90;;;;;;5092955;28;19919;-76
2021/08/21 07:54:20;;;;;;;;;;;24.50;99.90;;;;;;5092042;28;20377;-76
2021/08/21 07:56:46;;;;;;;;;;;24.80;99.90;;;;;;5089891;28;19915;-76
2021/08/21 07:59:11;;;;;;;;;;;25.00;99.90;;;;;;5092403;28;19934;-76
2021/08/21 08:01:37;;;;;;;;;;;25.30;99.90;;;;;;5092301;28;19908;-76
2021/08/21 08:04:02;;;;;;;;;;;25.50;99.90;;;;;;5092484;28;20050;-77
2021/08/21 08:06:28;;;;;;;;;;;25.40;99.90;;;;;;5092005;28;19935;-77
2021/08/21 08:08:53;;;;;;;;;;;25.70;99.90;;;;;;5092444;28;20392;-77
2021/08/21 08:11:18;;;;;;;;;;;25.90;99.90;;;;;;5092228;28;19908;-77
2021/08/21 08:13:44;;;;;;;;;;;25.90;99.90;;;;;;5092219;28;19919;-77
2021/08/21 08:16:10;;;;;;;;;;;26.60;99.90;;;;;;5091956;28;19908;-78
2021/08/21 08:18:35;;;;;;;;;;;26.50;99.90;;;;;;5092332;28;19970;-79
2021/08/21 08:21:01;;;;;;;;;;;26.30;99.90;;;;;;5092248;28;19994;-80
2021/08/21 08:23:26;;;;;;;;;;;26.20;99.90;;;;;;5092149;28;19954;-79
2021/08/21 08:25:51;;;;;;;;;;;26.30;99.90;;;;;;5092094;28;20387;-79
2021/08/21 08:28:17;;;;;;;;;;;26.60;99.90;;;;;;5089429;28;19909;-79
2021/08/21 08:30:42;;;;;;;;;;;27.00;99.90;;;;;;5091810;28;19931;-79
2021/08/21 08:33:08;;;;;;;;;;;26.50;99.90;;;;;;5091875;28;19977;-78
2021/08/21 08:35:34;;;;;;;;;;;26.40;99.90;;;;;;5092063;28;19912;-78
2021/08/21 08:37:59;;;;;;;;;;;27.00;99.90;;;;;;5093922;28;20003;-79
2021/08/21 08:40:26;;;;;;;;;;;27.20;99.90;;;;;;5092998;28;19912;-79
2021/08/21 08:42:51;;;;;;;;;;;27.10;99.90;;;;;;5090645;28;19908;-79
2021/08/21 08:45:17;;;;;;;;;;;27.30;99.90;;;;;;5091667;28;19961;-79
2021/08/21 08:47:42;;;;;;;;;;;27.30;99.50;;;;;;5091942;28;20002;-78
2021/08/21 08:50:10;;;;;;;;;;;27.70;99.90;;;;;;5092083;28;19908;-78
2021/08/21 08:52:35;;;;;;;;;;;27.70;99.10;;;;;;5088330;28;19974;-79
2021/08/21 08:55:05;;;;;;;;;;;27.30;99.90;;;;;;5089757;28;19955;-79
2021/08/21 08:57:40;;;;;;;;;;;27.70;99.80;;;;;;5091461;28;19909;-79
2021/08/21 09:00:08;;;;;;;;;;;27.90;99.90;;;;;;5091418;28;20397;-80
2021/08/21 09:02:35;;;;;;;;;;;28.70;99.90;;;;;;5088401;28;20300;-79
2021/08/21 09:05:01;;;;;;;;;;;28.40;98.90;;;;;;5091158;28;20006;-78
2021/08/21 09:07:45;;;;;;;;;;;28.10;99.30;;;;;;5089692;28;19908;-78
2021/08/21 09:10:12;;;;;;;;;;;28.40;99.50;;;;;;5091515;28;19915;-79
2021/08/21 09:12:38;;;;;;;;;;;28.20;99.50;;;;;;5091248;28;19955;-79
2021/08/21 09:15:23;;;;;;;;;;;28.00;99.30;;;;;;5091450;28;19956;-79
2021/08/21 09:18:09;;;;;;;;;;;27.70;99.90;;;;;;5091243;28;20431;-77
2021/08/21 09:20:47;;;;;;;;;;;28.10;99.10;;;;;;5090727;28;19909;-77
2021/08/21 09:23:20;;;;;;;;;;;28.40;99.90;;;;;;5092018;28;19912;-78
2021/08/21 09:25:46;;;;;;;;;;;28.60;98.30;;;;;;5095552;28;19919;-77
2021/08/21 09:28:18;;;;;;;;;;;28.30;98.20;;;;;;5095213;28;20373;-77
2021/08/21 09:30:44;;;;;;;;;;;28.30;98.80;;;;;;5094066;28;19915;-77
2021/08/21 09:33:10;;;;;;;;;;;28.70;97.60;;;;;;5092862;28;19919;-77
2021/08/21 09:35:35;;;;;;;;;;;28.60;98.90;;;;;;5095254;28;19959;-78
2021/08/21 09:38:02;;;;;;;;;;;29.00;98.20;;;;;;5093779;28;20365;-78
2021/08/21 09:40:35;;;;;;;;;;;29.50;97.20;;;;;;5095225;28;19908;-77
2021/08/21 09:43:03;;;;;;;;;;;29.60;97.70;;;;;;5095220;28;19908;-78
2021/08/21 09:45:29;;;;;;;;;;;29.90;97.50;;;;;;5095074;28;19974;-77
2021/08/21 09:47:59;;;;;;;;;;;30.00;97.40;;;;;;5094996;28;20034;-77
2021/08/21 09:50:24;;;;;;;;;;;29.60;98.10;;;;;;5094961;28;19908;-77
2021/08/21 09:52:50;;;;;;;;;;;29.80;97.70;;;;;;5093793;28;20428;-77
2021/08/21 09:55:20;;;;;;;;;;;29.70;97.60;;;;;;5094915;28;20267;-77
2021/08/21 09:57:58;;;;;;;;;;;29.80;96.80;;;;;;5091380;28;19912;-77
2021/08/21 10:00:24;;;;;;;;;;;29.80;97.30;;;;;;5094613;28;20030;-77
2021/08/21 10:02:49;;;;;;;;;;;30.20;96.50;;;;;;5094768;28;19955;-77
2021/08/21 10:05:15;;;;;;;;;;;30.60;97.80;;;;;;5094896;28;19943;-76
2021/08/21 10:07:45;;;;;;;;;;;30.60;96.40;;;;;;5094174;28;20110;-76
2021/08/21 10:10:12;;;;;;;;;;;30.50;98.40;;;;;;5094755;28;19948;-76
2021/08/21 10:12:41;;;;;;;;;;;30.20;95.10;;;;;;5094481;28;19915;-76
2021/08/21 10:15:06;;;;;;;;;;;29.20;98.10;;;;;;5094434;28;20369;-76
2021/08/21 10:17:32;;;;;;;;;;;28.90;97.50;;;;;;5094145;28;19954;-76
2021/08/21 10:19:58;;;;;;;;;;;29.40;96.60;;;;;;5094871;28;19915;-76
2021/08/21 10:22:27;;;;;;;;;;;30.00;97.00;;;;;;5094522;28;19919;-76
2021/08/21 10:24:53;;;;;;;;;;;30.30;97.50;;;;;;5094513;28;20295;-76
2021/08/21 10:27:19;;;;;;;;;;;30.70;95.60;;;;;;5092017;28;19908;-76
2021/08/21 10:29:59;;;;;;;;;;;31.00;96.40;;;;;;5103166;28;19912;-76
2021/08/21 10:32:28;;;;;;;;;;;31.30;96.80;;;;;;5114587;28;19908;-76
2021/08/21 10:34:54;;;;;;;;;;;31.10;95.60;;;;;;5113246;28;19919;-76
2021/08/21 10:37:33;;;;;;;;;;;30.90;95.60;;;;;;5114204;28;19907;-76
2021/08/21 10:39:58;;;;;;;;;;;30.60;96.00;;;;;;5114357;28;19943;-76
2021/08/21 10:42:29;;;;;;;;;;;30.30;97.30;;;;;;5114379;28;19912;-75
2021/08/21 10:44:55;;;;;;;;;;;30.70;95.00;;;;;;5114430;28;20383;-75
2021/08/21 10:47:41;;;;;;;;;;;30.80;94.70;;;;;;5113761;28;19923;-76
2021/08/21 10:50:16;;;;;;;;;;;30.90;96.50;;;;;;5114072;28;19908;-76
2021/08/21 10:52:44;;;;;;;;;;;31.20;95.30;;;;;;5114225;28;20056;-75
2021/08/21 10:55:35;;;;;;;;;;;30.90;95.10;;;;;;5114212;28;20002;-76
2021/08/21 10:58:07;;;;;;;;;;;31.20;95.90;;;;;;5098192;28;20384;-75
2021/08/21 11:00:39;;;;;;;;;;;30.90;95.50;;;;;;5093485;28;19916;-75
2021/08/21 11:03:27;;;;;;;;;;;31.00;94.50;;;;;;5093572;28;19920;-76
2021/08/21 11:06:02;;;;;;;;;;;31.60;94.10;;;;;;5087599;28;19909;-76
2021/08/21 11:08:29;;;;;;;;;;;31.70;93.40;;;;;;5093606;28;19909;-75
2021/08/21 11:11:18;;;;;;;;;;;31.60;93.50;;;;;;5093446;28;20418;-75
2021/08/21 11:13:47;;;;;;;;;;;31.50;95.10;;;;;;5093480;28;19918;-76
2021/08/21 11:16:13;;;;;;;;;;;31.50;94.30;;;;;;5092999;28;20361;-75
2021/08/21 11:18:43;;;;;;;;;;;31.90;93.10;;;;;;5093572;28;19916;-76
2021/08/21 11:21:27;;;;;;;;;;;31.60;93.60;;;;;;5093294;28;20371;-76
2021/08/21 11:23:53;;;;;;;;;;;31.50;94.40;;;;;;5093211;28;19954;-76
2021/08/21 11:26:22;;;;;;;;;;;31.50;94.50;;;;;;5092947;28;19912;-76
2021/08/21 11:29:05;;;;;;;;;;;31.20;94.50;;;;;;5091019;28;19908;-76
2021/08/21 11:31:50;;;;;;;;;;;31.10;93.80;;;;;;5093128;28;19961;-76
2021/08/21 11:34:16;;;;;;;;;;;31.50;95.10;;;;;;5093109;28;19939;-77
2021/08/21 11:36:42;;;;;;;;;;;31.80;95.20;;;;;;5092312;28;19954;-76
2021/08/21 11:39:07;;;;;;;;;;;31.40;92.70;;;;;;5093215;28;19944;-77
2021/08/21 11:41:33;;;;;;;;;;;30.70;92.30;;;;;;5093413;28;20560;-77
2021/08/21 11:44:04;;;;;;;;;;;31.10;94.80;;;;;;5092922;28;20440;-77
2021/08/21 11:46:29;;;;;;;;;;;31.40;94.80;;;;;;5091984;28;19916;-76
2021/08/21 11:49:04;;;;;;;;;;;31.20;92.80;;;;;;5092786;28;20629;-77
2021/08/21 11:51:29;;;;;;;;;;;30.90;93.60;;;;;;5089946;28;19915;-77
2021/08/21 11:54:03;;;;;;;;;;;31.30;91.10;;;;;;5089153;28;19916;-77
2021/08/21 11:56:28;;;;;;;;;;;31.30;93.40;;;;;;5088420;28;20322;-77
2021/08/21 11:58:54;;;;;;;;;;;30.70;92.60;;;;;;5087373;28;20280;-77
2021/08/21 12:01:22;;;;;;;;;;;30.10;93.30;;;;;;5088726;28;20005;-76
2021/08/21 12:06:23;;;;;;;;;;;30.00;92.60;;;;;;5090650;28;20323;-76
2021/08/21 12:08:49;;;;;;;;;;;30.00;94.20;;;;;;5092547;28;19909;-77
2021/08/21 12:11:15;;;;;;;;;;;30.00;94.20;;;;;;5092247;28;19922;-77
2021/08/21 12:13:40;;;;;;;;;;;30.10;92.70;;;;;;5092234;28;19920;-77
2021/08/21 12:16:16;;;;;;;;;;;30.00;93.50;;;;;;5091856;28;20450;-77
2021/08/21 12:18:44;;;;;;;;;;;30.00;90.90;;;;;;5092288;28;19908;-77
2021/08/21 12:21:16;;;;;;;;;;;29.80;92.80;;;;;;5092227;28;19908;-77
2021/08/21 12:23:43;;;;;;;;;;;29.80;92.70;;;;;;5092172;28;19912;-77
2021/08/21 12:26:08;;;;;;;;;;;29.70;92.70;;;;;;5091683;28;19959;-77
2021/08/21 12:28:34;;;;;;;;;;;29.40;93.70;;;;;;5089910;28;19912;-77
2021/08/21 12:31:01;;;;;;;;;;;29.90;92.80;;;;;;5091731;28;19908;-77
2021/08/21 12:33:34;;;;;;;;;;;30.10;94.00;;;;;;5092089;28;20179;-77
2021/08/21 12:36:12;;;;;;;;;;;30.20;92.80;;;;;;5091889;28;19912;-77
2021/08/21 12:38:38;;;;;;;;;;;30.20;92.40;;;;;;5091904;28;19953;-77
2021/08/21 12:41:04;;;;;;;;;;;30.10;93.60;;;;;;5091815;28;19908;-76
2021/08/21 12:43:29;;;;;;;;;;;29.80;92.80;;;;;;5092032;28;20388;-76
2021/08/21 12:45:55;;;;;;;;;;;29.90;95.30;;;;;;5091805;28;19920;-76
2021/08/21 12:48:23;;;;;;;;;;;29.90;94.20;;;;;;5091928;28;19915;-76
2021/08/21 12:50:48;;;;;;;;;;;29.90;93.30;;;;;;5091887;28;19908;-76
2021/08/21 12:53:17;;;;;;;;;;;29.80;94.00;;;;;;5091789;28;20284;-76
2021/08/21 12:55:43;;;;;;;;;;;29.90;93.60;;;;;;5091945;28;20357;-76
2021/08/21 12:58:10;;;;;;;;;;;29.90;92.50;;;;;;5092974;28;19954;-76
2021/08/21 13:00:36;;;;;;;;;;;29.40;94.90;;;;;;5111648;28;20284;-77
2021/08/21 13:03:12;;;;;;;;;;;29.50;94.20;;;;;;5111832;28;19915;-77
2021/08/21 13:05:38;;;;;;;;;;;29.80;94.90;;;;;;5111897;28;19908;-76
2021/08/21 13:08:07;;;;;;;;;;;29.60;94.50;;;;;;5111297;28;20437;-76
2021/08/21 13:10:36;;;;;;;;;;;29.60;94.30;;;;;;5111728;28;19916;-77
2021/08/21 13:13:02;;;;;;;;;;;29.30;93.40;;;;;;5111504;28;20292;-76
2021/08/21 13:15:28;;;;;;;;;;;29.10;94.70;;;;;;5111659;28;19907;-77
2021/08/21 13:17:54;;;;;;;;;;;29.30;95.30;;;;;;5111456;28;19968;-76
2021/08/21 13:20:20;;;;;;;;;;;29.30;95.10;;;;;;5111559;28;19907;-75
2021/08/21 13:22:48;;;;;;;;;;;28.80;94.60;;;;;;5111854;28;19915;-76
2021/08/21 13:25:14;;;;;;;;;;;29.00;95.10;;;;;;5111591;28;20284;-76
2021/08/21 13:27:39;;;;;;;;;;;29.20;95.60;;;;;;5098605;28;19908;-76
2021/08/21 13:30:05;;;;;;;;;;;28.80;94.50;;;;;;5090964;28;19953;-76
2021/08/21 13:32:31;;;;;;;;;;;28.70;93.30;;;;;;5091147;28;19908;-76
2021/08/21 13:34:56;;;;;;;;;;;28.90;95.40;;;;;;5090928;28;19947;-76
2021/08/21 13:37:22;;;;;;;;;;;28.90;93.60;;;;;;5090734;28;19955;-76
2021/08/21 13:39:47;;;;;;;;;;;29.30;94.10;;;;;;5091082;28;19952;-76
2021/08/21 13:42:13;;;;;;;;;;;29.80;93.70;;;;;;5090999;28;19998;-76
2021/08/21 13:44:38;;;;;;;;;;;29.90;94.20;;;;;;5091102;28;20379;-76
2021/08/21 13:47:04;;;;;;;;;;;30.10;95.30;;;;;;5090572;28;20282;-76
2021/08/21 13:49:30;;;;;;;;;;;30.20;93.30;;;;;;5091041;28;19916;-76
2021/08/21 13:51:55;;;;;;;;;;;30.20;94.30;;;;;;5091270;28;19981;-76
2021/08/21 13:54:21;;;;;;;;;;;30.20;94.20;;;;;;5091017;28;19912;-75
2021/08/21 13:56:47;;;;;;;;;;;29.80;94.60;;;;;;5088539;28;19908;-76
2021/08/21 13:59:12;;;;;;;;;;;29.10;95.40;;;;;;5090724;28;20292;-76
2021/08/21 14:01:38;;;;;;;;;;;29.30;94.40;;;;;;5090992;28;19908;-76
2021/08/21 14:04:06;;;;;;;;;;;29.80;94.40;;;;;;5090816;28;19908;-76
2021/08/21 14:06:33;;;;;;;;;;;30.10;93.10;;;;;;5090588;28;19913;-76
2021/08/21 14:09:03;;;;;;;;;;;30.40;92.10;;;;;;5091023;28;19908;-76
2021/08/21 14:11:28;;;;;;;;;;;29.70;94.30;;;;;;5094785;28;19937;-76
2021/08/21 14:13:54;;;;;;;;;;;29.30;93.80;;;;;;5094507;28;19935;-75
2021/08/21 14:16:19;;;;;;;;;;;29.80;93.50;;;;;;5094266;28;19908;-76